Time;durP1;ratioP1;P1;durP2;ratioP2;P2;SDS_P1;SDS_P2;PMS_P1;PMS_P2;Temp;Humidity;BMP_temperature;BMP_pressure;BME280_temperature;BME280_humidity;BME280_pressure;Samples;Min_cycle;Max_cycle;Signal;HPM_P1;HPM_P2
2023/07/07 03:00:47;;;;;;;;;;;12.90;99.90;;;;;;5836747;23;19925;-76
2023/07/07 03:03:12;;;;;;;;;;;12.90;99.90;;;;;;4977805;28;20292;-78
2023/07/07 03:05:38;;;;;;;;;;;12.90;99.90;;;;;;4994268;28;19917;-75
2023/07/07 03:08:04;;;;;;;;;;;12.90;99.90;;;;;;4995619;28;19921;-77
2023/07/07 03:10:33;;;;;;;;;;;12.90;99.90;;;;;;4995515;28;19918;-78
2023/07/07 03:12:59;;;;;;;;;;;12.90;99.90;;;;;;4994418;28;19940;-79
2023/07/07 03:15:29;;;;;;;;;;;12.90;99.90;;;;;;4993998;28;20353;-76
2023/07/07 03:17:55;;;;;;;;;;;12.80;99.90;;;;;;4994014;28;19917;-77
2023/07/07 03:20:26;;;;;;;;;;;12.80;99.90;;;;;;4994009;28;20442;-78
2023/07/07 03:22:52;;;;;;;;;;;12.70;99.90;;;;;;4995038;28;19922;-77
2023/07/07 03:25:17;;;;;;;;;;;12.70;99.90;;;;;;4994964;28;20012;-77
2023/07/07 03:27:43;;;;;;;;;;;12.70;99.90;;;;;;4995299;28;19925;-76
2023/07/07 03:30:09;;;;;;;;;;;12.70;99.90;;;;;;4993347;28;19924;-78
2023/07/07 03:32:34;;;;;;;;;;;12.70;99.90;;;;;;4993368;28;19924;-76
2023/07/07 03:35:00;;;;;;;;;;;12.70;99.90;;;;;;4993455;28;19918;-75
2023/07/07 03:37:26;;;;;;;;;;;12.70;99.90;;;;;;4995691;28;19917;-74
2023/07/07 03:39:51;;;;;;;;;;;12.70;99.90;;;;;;4993388;28;20345;-75
2023/07/07 03:42:17;;;;;;;;;;;12.70;99.90;;;;;;4993239;28;19930;-77
2023/07/07 03:44:42;;;;;;;;;;;12.70;99.90;;;;;;4994574;28;20289;-79
2023/07/07 03:47:08;;;;;;;;;;;12.70;99.90;;;;;;4977136;28;19917;-77
2023/07/07 03:49:33;;;;;;;;;;;12.70;99.90;;;;;;4993109;28;19921;-77
2023/07/07 03:51:59;;;;;;;;;;;12.70;99.90;;;;;;4993079;28;20004;-75
2023/07/07 03:54:24;;;;;;;;;;;12.70;99.90;;;;;;4994296;28;19917;-74
2023/07/07 03:56:50;;;;;;;;;;;12.70;99.90;;;;;;4993099;28;20012;-76
2023/07/07 03:59:15;;;;;;;;;;;12.70;99.90;;;;;;4993071;28;20017;-75
2023/07/07 04:01:41;;;;;;;;;;;12.70;99.90;;;;;;4992709;28;19965;-74
2023/07/07 04:04:06;;;;;;;;;;;12.70;99.90;;;;;;4993022;28;19917;-78
2023/07/07 04:06:33;;;;;;;;;;;12.70;99.90;;;;;;4994270;28;19925;-75
2023/07/07 04:08:58;;;;;;;;;;;12.70;99.90;;;;;;4994809;28;19941;-79
2023/07/07 04:11:24;;;;;;;;;;;12.80;99.90;;;;;;4994004;28;20350;-78
2023/07/07 04:13:50;;;;;;;;;;;12.80;99.90;;;;;;4993090;28;20262;-77
2023/07/07 04:16:20;;;;;;;;;;;12.80;99.90;;;;;;4993023;28;20428;-75
2023/07/07 04:18:46;;;;;;;;;;;12.80;99.90;;;;;;4994427;28;19953;-78
2023/07/07 04:21:14;;;;;;;;;;;12.80;99.90;;;;;;4994261;28;19964;-77
2023/07/07 04:23:40;;;;;;;;;;;12.90;99.90;;;;;;4992783;28;20071;-75
2023/07/07 04:26:06;;;;;;;;;;;12.90;99.90;;;;;;4993098;28;20420;-76
2023/07/07 04:28:34;;;;;;;;;;;12.90;99.90;;;;;;4994423;28;19918;-75
2023/07/07 04:31:00;;;;;;;;;;;12.90;99.90;;;;;;4993213;28;20262;-76
2023/07/07 04:33:26;;;;;;;;;;;13.00;99.90;;;;;;4993275;28;19968;-78
2023/07/07 04:35:53;;;;;;;;;;;13.00;99.90;;;;;;4992977;28;19918;-75
2023/07/07 04:38:23;;;;;;;;;;;13.00;99.90;;;;;;4994697;28;19929;-74
2023/07/07 04:40:48;;;;;;;;;;;13.10;99.90;;;;;;4992742;28;20025;-75
2023/07/07 04:43:14;;;;;;;;;;;13.10;99.90;;;;;;4992781;28;20338;-77
2023/07/07 04:45:40;;;;;;;;;;;13.10;99.90;;;;;;4992890;28;19917;-77
2023/07/07 04:48:05;;;;;;;;;;;13.10;99.90;;;;;;4993018;28;19917;-79
2023/07/07 04:50:34;;;;;;;;;;;13.10;99.90;;;;;;4991015;28;19922;-78
2023/07/07 04:52:59;;;;;;;;;;;13.20;99.90;;;;;;4991250;28;19985;-76
2023/07/07 04:55:25;;;;;;;;;;;13.20;99.90;;;;;;4996180;28;19960;-75
2023/07/07 04:57:50;;;;;;;;;;;13.30;99.90;;;;;;4996191;28;20323;-79
2023/07/07 05:00:16;;;;;;;;;;;13.30;99.90;;;;;;4997509;28;19918;-75
2023/07/07 05:02:43;;;;;;;;;;;13.40;99.90;;;;;;4996155;28;20300;-76
2023/07/07 05:05:08;;;;;;;;;;;13.40;99.90;;;;;;4996542;28;19917;-74
2023/07/07 05:07:34;;;;;;;;;;;13.50;99.90;;;;;;4997626;28;20036;-78
2023/07/07 05:09:59;;;;;;;;;;;13.60;99.90;;;;;;4996434;28;20334;-76
2023/07/07 05:12:25;;;;;;;;;;;13.60;99.90;;;;;;4996349;28;20467;-77
2023/07/07 05:14:53;;;;;;;;;;;13.70;99.90;;;;;;4995984;28;19960;-74
2023/07/07 05:17:19;;;;;;;;;;;13.80;99.90;;;;;;4996062;28;19924;-77
2023/07/07 05:19:44;;;;;;;;;;;13.80;99.90;;;;;;4997374;28;19918;-76
2023/07/07 05:22:10;;;;;;;;;;;13.90;99.90;;;;;;4995913;28;19928;-77
2023/07/07 05:24:35;;;;;;;;;;;14.00;99.90;;;;;;4995923;28;20296;-77
2023/07/07 05:27:01;;;;;;;;;;;14.00;99.90;;;;;;4997020;28;19987;-78
2023/07/07 05:29:27;;;;;;;;;;;14.10;99.90;;;;;;4995805;28;19917;-75
2023/07/07 05:31:52;;;;;;;;;;;14.10;99.90;;;;;;4995586;28;19925;-78
2023/07/07 05:34:19;;;;;;;;;;;14.20;99.90;;;;;;4995945;28;19918;-78
2023/07/07 05:36:45;;;;;;;;;;;14.20;99.90;;;;;;4997129;28;19918;-79
2023/07/07 05:39:11;;;;;;;;;;;14.30;99.90;;;;;;4997336;28;20285;-79
2023/07/07 05:41:36;;;;;;;;;;;14.30;99.90;;;;;;4997028;28;20297;-77
2023/07/07 05:44:02;;;;;;;;;;;14.40;99.90;;;;;;4995781;28;19917;-77
2023/07/07 05:46:27;;;;;;;;;;;14.50;99.90;;;;;;4995831;28;19918;-76
2023/07/07 05:48:53;;;;;;;;;;;14.50;99.90;;;;;;4992603;28;20455;-78
2023/07/07 05:51:19;;;;;;;;;;;14.60;99.90;;;;;;4996317;28;19917;-75
2023/07/07 05:53:44;;;;;;;;;;;14.70;99.90;;;;;;4995069;28;19956;-77
2023/07/07 05:56:16;;;;;;;;;;;14.70;99.90;;;;;;4995321;28;19918;-76
2023/07/07 05:58:42;;;;;;;;;;;14.80;99.90;;;;;;4997707;28;19918;-75
2023/07/07 06:01:10;;;;;;;;;;;14.90;99.90;;;;;;4995669;28;20013;-77
2023/07/07 06:03:37;;;;;;;;;;;15.00;99.90;;;;;;4994854;28;19928;-78
2023/07/07 06:06:02;;;;;;;;;;;15.00;99.90;;;;;;4993425;28;19995;-76
2023/07/07 06:08:28;;;;;;;;;;;15.10;99.90;;;;;;4993852;28;19918;-79
2023/07/07 06:10:53;;;;;;;;;;;15.10;99.90;;;;;;4994314;28;19925;-77
2023/07/07 06:13:23;;;;;;;;;;;15.30;99.90;;;;;;4995096;28;20001;-78
2023/07/07 06:15:52;;;;;;;;;;;15.30;99.90;;;;;;4996339;28;19924;-77
2023/07/07 06:18:18;;;;;;;;;;;15.40;99.90;;;;;;4996047;28;20281;-76
2023/07/07 06:20:51;;;;;;;;;;;15.40;99.90;;;;;;4995038;28;19937;-78
2023/07/07 06:23:16;;;;;;;;;;;15.50;99.90;;;;;;4996212;28;19972;-78
2023/07/07 06:25:42;;;;;;;;;;;15.50;99.90;;;;;;4996293;28;20340;-77
2023/07/07 06:28:07;;;;;;;;;;;15.60;99.90;;;;;;4978767;28;19925;-76
2023/07/07 06:30:33;;;;;;;;;;;15.80;99.90;;;;;;4995172;28;19917;-77
2023/07/07 06:32:58;;;;;;;;;;;15.80;99.90;;;;;;4994604;28;19917;-76
2023/07/07 06:35:27;;;;;;;;;;;15.90;99.90;;;;;;4994557;28;19917;-79
2023/07/07 06:37:53;;;;;;;;;;;16.00;99.90;;;;;;4994931;28;19917;-80
2023/07/07 06:40:18;;;;;;;;;;;16.00;99.90;;;;;;4994573;28;20266;-76
2023/07/07 06:42:44;;;;;;;;;;;16.10;99.90;;;;;;4994710;28;20385;-77
2023/07/07 06:45:09;;;;;;;;;;;16.20;99.90;;;;;;4994848;28;19925;-78
2023/07/07 06:47:35;;;;;;;;;;;16.20;99.90;;;;;;4996042;28;19924;-76
2023/07/07 06:50:00;;;;;;;;;;;16.30;99.90;;;;;;4994523;28;19918;-74
2023/07/07 06:52:26;;;;;;;;;;;16.40;99.90;;;;;;4995779;28;19918;-74
2023/07/07 06:54:55;;;;;;;;;;;16.50;99.90;;;;;;4994667;28;19939;-80
2023/07/07 06:57:21;;;;;;;;;;;16.50;99.90;;;;;;4994582;28;19964;-77
2023/07/07 06:59:46;;;;;;;;;;;16.50;99.90;;;;;;4994144;28;19923;-79
2023/07/07 07:02:12;;;;;;;;;;;16.60;99.90;;;;;;4994060;28;19984;-74
2023/07/07 07:04:41;;;;;;;;;;;16.60;99.90;;;;;;4994028;28;19969;-74
2023/07/07 07:07:10;;;;;;;;;;;16.70;99.90;;;;;;4994062;28;19917;-78
2023/07/07 07:09:35;;;;;;;;;;;16.70;99.90;;;;;;4994053;28;19969;-73
2023/07/07 07:12:01;;;;;;;;;;;16.80;99.90;;;;;;4977579;28;19980;-78
2023/07/07 07:14:26;;;;;;;;;;;16.90;99.90;;;;;;4993991;28;19997;-75
2023/07/07 07:16:52;;;;;;;;;;;17.10;99.90;;;;;;4995088;28;19918;-77
2023/07/07 07:19:18;;;;;;;;;;;17.20;99.90;;;;;;4997650;28;20373;-73
2023/07/07 07:21:43;;;;;;;;;;;17.30;99.90;;;;;;4996751;28;19928;-77
2023/07/07 07:24:09;;;;;;;;;;;17.40;99.90;;;;;;4994091;28;20265;-77
2023/07/07 07:26:34;;;;;;;;;;;17.60;99.90;;;;;;4993718;28;20376;-73
2023/07/07 07:29:00;;;;;;;;;;;17.70;99.90;;;;;;4994161;28;20262;-79
2023/07/07 07:31:26;;;;;;;;;;;17.90;99.90;;;;;;4993510;28;20423;-76
2023/07/07 07:33:53;;;;;;;;;;;18.00;99.90;;;;;;4994943;28;19917;-80
2023/07/07 07:36:19;;;;;;;;;;;18.10;99.90;;;;;;4994045;28;19917;-76
2023/07/07 07:38:44;;;;;;;;;;;18.20;99.90;;;;;;4993449;28;20373;-78
2023/07/07 07:41:10;;;;;;;;;;;18.40;99.90;;;;;;4994589;28;19924;-76
2023/07/07 07:43:35;;;;;;;;;;;18.50;99.90;;;;;;4993298;28;19921;-73
2023/07/07 07:46:01;;;;;;;;;;;18.60;99.90;;;;;;4994486;28;19925;-75
2023/07/07 07:48:26;;;;;;;;;;;18.70;99.90;;;;;;4994581;28;19925;-74
2023/07/07 07:50:52;;;;;;;;;;;18.80;99.90;;;;;;4977042;28;19918;-78
2023/07/07 07:53:19;;;;;;;;;;;18.80;99.90;;;;;;4994605;28;19917;-78
2023/07/07 07:55:44;;;;;;;;;;;18.90;99.90;;;;;;4993247;28;19921;-77
2023/07/07 07:58:10;;;;;;;;;;;19.00;99.90;;;;;;4993450;28;20008;-81
2023/07/07 08:00:35;;;;;;;;;;;19.20;99.90;;;;;;4992910;28;19971;-76
2023/07/07 08:03:01;;;;;;;;;;;19.30;99.90;;;;;;4993241;28;19952;-78
2023/07/07 08:05:26;;;;;;;;;;;19.30;99.90;;;;;;4994322;28;19925;-78
2023/07/07 08:07:52;;;;;;;;;;;19.40;99.90;;;;;;4994558;28;19925;-76
2023/07/07 08:10:18;;;;;;;;;;;19.40;99.90;;;;;;4994472;28;19922;-77
2023/07/07 08:12:43;;;;;;;;;;;19.50;99.90;;;;;;4994511;28;19922;-80
2023/07/07 08:15:10;;;;;;;;;;;19.60;99.90;;;;;;4994691;28;19933;-78
2023/07/07 08:17:35;;;;;;;;;;;19.70;99.90;;;;;;4993421;28;20384;-79
2023/07/07 08:20:01;;;;;;;;;;;19.70;99.90;;;;;;4976943;28;19956;-80
2023/07/07 08:22:26;;;;;;;;;;;19.80;99.90;;;;;;4993650;28;19922;-78
2023/07/07 08:24:53;;;;;;;;;;;20.00;99.90;;;;;;4993365;28;19918;-72
2023/07/07 08:27:20;;;;;;;;;;;20.10;99.90;;;;;;4993006;28;19940;-74
2023/07/07 08:29:45;;;;;;;;;;;20.20;99.90;;;;;;4996052;28;19917;-77
2023/07/07 08:32:12;;;;;;;;;;;20.40;99.90;;;;;;4996864;28;20404;-75
2023/07/07 08:34:38;;;;;;;;;;;20.40;99.90;;;;;;4996977;28;19918;-77
2023/07/07 08:37:04;;;;;;;;;;;20.50;99.90;;;;;;4996911;28;20008;-78
2023/07/07 08:39:29;;;;;;;;;;;20.60;99.90;;;;;;4996799;28;19925;-79
2023/07/07 08:42:00;;;;;;;;;;;20.70;99.90;;;;;;4996758;28;19995;-75
2023/07/07 08:44:26;;;;;;;;;;;20.80;99.90;;;;;;4996592;28;19917;-77
2023/07/07 08:47:02;;;;;;;;;;;20.90;99.90;;;;;;4996588;28;19924;-79
2023/07/07 08:49:34;;;;;;;;;;;20.90;99.90;;;;;;4996983;28;20289;-75
2023/07/07 08:52:13;;;;;;;;;;;21.00;99.90;;;;;;4997994;28;19976;-78
2023/07/07 08:54:39;;;;;;;;;;;21.10;99.90;;;;;;4996778;28;19924;-77
2023/07/07 08:57:06;;;;;;;;;;;21.20;99.90;;;;;;4996741;28;19918;-76
2023/07/07 08:59:55;;;;;;;;;;;21.30;99.90;;;;;;4997750;28;20356;-80
2023/07/07 09:02:33;;;;;;;;;;;21.40;99.90;;;;;;4969265;28;20281;-79
2023/07/07 09:05:17;;;;;;;;;;;21.50;99.90;;;;;;4996444;28;19918;-79
2023/07/07 09:08:05;;;;;;;;;;;21.60;99.90;;;;;;4998259;28;19918;-75
2023/07/07 09:10:43;;;;;;;;;;;21.80;99.90;;;;;;4996327;28;19917;-76
2023/07/07 09:13:17;;;;;;;;;;;21.90;99.90;;;;;;4996458;28;19924;-75
2023/07/07 09:15:45;;;;;;;;;;;22.00;99.90;;;;;;4998151;28;19918;-73
2023/07/07 09:18:19;;;;;;;;;;;22.20;99.90;;;;;;4996510;28;19967;-74
2023/07/07 09:20:46;;;;;;;;;;;22.30;99.90;;;;;;4996413;28;20400;-75
2023/07/07 09:23:16;;;;;;;;;;;22.40;99.90;;;;;;4997595;28;19926;-73
2023/07/07 09:25:47;;;;;;;;;;;22.40;99.90;;;;;;4996403;28;19940;-76
2023/07/07 09:28:14;;;;;;;;;;;22.50;99.90;;;;;;4996192;28;19917;-73
2023/07/07 09:30:52;;;;;;;;;;;22.50;99.90;;;;;;4995866;28;19980;-78
2023/07/07 09:33:19;;;;;;;;;;;22.60;99.90;;;;;;4996400;28;20373;-76
2023/07/07 09:35:53;;;;;;;;;;;22.70;99.90;;;;;;4996016;28;19925;-79
2023/07/07 09:38:39;;;;;;;;;;;22.80;99.90;;;;;;4996105;28;20397;-77
2023/07/07 09:41:12;;;;;;;;;;;23.00;99.90;;;;;;4995598;28;19924;-78
2023/07/07 09:43:43;;;;;;;;;;;23.20;99.90;;;;;;4997507;28;20317;-74
2023/07/07 09:46:32;;;;;;;;;;;23.20;99.90;;;;;;4997371;28;19924;-76
2023/07/07 09:49:01;;;;;;;;;;;23.40;99.90;;;;;;4997833;28;19925;-78
2023/07/07 09:51:30;;;;;;;;;;;23.50;99.90;;;;;;4995663;28;20056;-72
2023/07/07 09:53:55;;;;;;;;;;;23.50;99.90;;;;;;4996998;28;19945;-78
2023/07/07 09:56:23;;;;;;;;;;;23.60;99.90;;;;;;4995815;28;19922;-77
2023/07/07 09:58:50;;;;;;;;;;;23.70;99.90;;;;;;4997043;28;20366;-78
2023/07/07 10:01:16;;;;;;;;;;;23.80;99.90;;;;;;4996730;28;19918;-74
2023/07/07 10:03:44;;;;;;;;;;;23.90;99.90;;;;;;4995531;28;20297;-72
2023/07/07 10:06:24;;;;;;;;;;;24.10;99.90;;;;;;4995383;28;19918;-78
2023/07/07 10:08:50;;;;;;;;;;;24.20;99.90;;;;;;4995295;28;19925;-79
2023/07/07 10:11:22;;;;;;;;;;;24.30;99.90;;;;;;4996907;28;20297;-75
2023/07/07 10:13:49;;;;;;;;;;;24.40;99.90;;;;;;4996685;28;20028;-78
2023/07/07 10:16:23;;;;;;;;;;;24.40;99.90;;;;;;4996736;28;19928;-76
2023/07/07 10:18:49;;;;;;;;;;;24.40;99.90;;;;;;4996990;28;19918;-78
2023/07/07 10:21:17;;;;;;;;;;;24.50;99.90;;;;;;4995054;28;19925;-76
2023/07/07 10:23:42;;;;;;;;;;;24.50;99.90;;;;;;4995030;28;20313;-76
2023/07/07 10:26:08;;;;;;;;;;;24.60;99.90;;;;;;4994935;28;19921;-75
2023/07/07 10:28:33;;;;;;;;;;;24.60;99.90;;;;;;4994911;28;19921;-76
2023/07/07 10:30:59;;;;;;;;;;;24.60;99.90;;;;;;4993779;28;19918;-73
2023/07/07 10:33:25;;;;;;;;;;;24.60;99.90;;;;;;4994895;28;19917;-76
2023/07/07 10:35:50;;;;;;;;;;;24.60;99.90;;;;;;4994949;28;19956;-79
2023/07/07 10:38:16;;;;;;;;;;;24.60;99.90;;;;;;4996541;28;19918;-77
2023/07/07 10:40:42;;;;;;;;;;;24.70;99.90;;;;;;4994804;28;19922;-77
2023/07/07 10:43:12;;;;;;;;;;;24.80;99.90;;;;;;4995739;28;20012;-76
2023/07/07 10:45:38;;;;;;;;;;;24.90;99.90;;;;;;4994530;28;19924;-76
2023/07/07 10:48:10;;;;;;;;;;;24.90;99.90;;;;;;4994884;28;19922;-77
2023/07/07 10:50:38;;;;;;;;;;;25.00;99.90;;;;;;4996028;28;19917;-75
2023/07/07 10:53:23;;;;;;;;;;;24.90;98.70;;;;;;4993571;28;19972;-77
2023/07/07 10:55:54;;;;;;;;;;;24.90;99.90;;;;;;4996224;28;19917;-73
2023/07/07 10:58:32;;;;;;;;;;;25.00;99.90;;;;;;4995327;28;20365;-76
2023/07/07 11:01:18;;;;;;;;;;;24.90;99.90;;;;;;4993637;28;19918;-75
2023/07/07 11:04:08;;;;;;;;;;;24.90;99.90;;;;;;4995684;28;19944;-74
2023/07/07 11:06:39;;;;;;;;;;;25.10;99.90;;;;;;4995090;28;19990;-74
2023/07/07 11:09:08;;;;;;;;;;;25.10;99.90;;;;;;4993849;28;19918;-76
2023/07/07 11:11:36;;;;;;;;;;;25.20;99.90;;;;;;4994296;28;19917;-76
2023/07/07 11:14:17;;;;;;;;;;;25.40;99.90;;;;;;4994338;28;20004;-74
2023/07/07 11:16:47;;;;;;;;;;;25.40;99.90;;;;;;4994207;28;19924;-79
2023/07/07 11:19:30;;;;;;;;;;;25.50;99.90;;;;;;4994077;28;19924;-76
2023/07/07 11:22:08;;;;;;;;;;;25.50;99.90;;;;;;4994041;28;19917;-73
2023/07/07 11:24:48;;;;;;;;;;;25.60;99.90;;;;;;4991263;28;20300;-74
2023/07/07 11:27:17;;;;;;;;;;;25.60;99.90;;;;;;4991865;28;19975;-77
2023/07/07 11:29:48;;;;;;;;;;;25.70;99.90;;;;;;4993378;28;19918;-73
2023/07/07 11:32:34;;;;;;;;;;;25.70;99.90;;;;;;4984311;28;19976;-77
2023/07/07 11:35:19;;;;;;;;;;;25.60;99.90;;;;;;4986145;28;20417;-76
2023/07/07 11:38:07;;;;;;;;;;;25.60;99.90;;;;;;4991450;28;20024;-74
2023/07/07 11:40:48;;;;;;;;;;;25.70;99.90;;;;;;4938229;28;19984;-76
2023/07/07 11:43:14;;;;;;;;;;;25.80;99.90;;;;;;4991893;28;19933;-77
2023/07/07 11:45:42;;;;;;;;;;;25.70;99.90;;;;;;4993563;28;20269;-79
2023/07/07 11:48:10;;;;;;;;;;;25.80;99.90;;;;;;4993379;28;19925;-75
2023/07/07 11:50:36;;;;;;;;;;;25.80;99.90;;;;;;4992168;28;20365;-76
2023/07/07 11:53:20;;;;;;;;;;;25.90;99.90;;;;;;4993700;28;19972;-74
2023/07/07 11:55:46;;;;;;;;;;;25.90;99.90;;;;;;4977588;28;19987;-77
2023/07/07 11:58:25;;;;;;;;;;;25.90;99.90;;;;;;4993103;28;19964;-75
2023/07/07 12:01:04;;;;;;;;;;;25.90;99.90;;;;;;4993273;28;19917;-76
2023/07/07 12:03:39;;;;;;;;;;;25.90;99.50;;;;;;4992622;28;19929;-75
2023/07/07 12:06:25;;;;;;;;;;;25.90;98.60;;;;;;4994606;28;19992;-74
2023/07/07 12:09:12;;;;;;;;;;;25.90;99.70;;;;;;4994003;28;19964;-77
2023/07/07 12:11:41;;;;;;;;;;;26.00;99.90;;;;;;4993468;28;19922;-77
2023/07/07 12:14:06;;;;;;;;;;;26.20;99.90;;;;;;4993022;28;19924;-76
2023/07/07 12:16:33;;;;;;;;;;;26.30;99.90;;;;;;4993397;28;19922;-76
2023/07/07 12:19:09;;;;;;;;;;;26.40;98.90;;;;;;4993271;28;19939;-73
2023/07/07 12:21:35;;;;;;;;;;;26.50;99.70;;;;;;4991704;28;19969;-73
2023/07/07 12:24:08;;;;;;;;;;;26.50;98.80;;;;;;4990063;28;19945;-77
2023/07/07 12:26:36;;;;;;;;;;;26.50;99.10;;;;;;4993977;28;19928;-77
2023/07/07 12:29:02;;;;;;;;;;;26.50;97.70;;;;;;4993159;28;19940;-73
2023/07/07 12:31:29;;;;;;;;;;;26.60;98.40;;;;;;4991538;28;19924;-74
2023/07/07 12:33:55;;;;;;;;;;;26.70;98.90;;;;;;4993417;28;19926;-74
2023/07/07 12:36:21;;;;;;;;;;;26.70;98.60;;;;;;4992479;28;19922;-75
2023/07/07 12:38:51;;;;;;;;;;;26.70;97.00;;;;;;4990407;28;20325;-72
2023/07/07 12:41:21;;;;;;;;;;;26.60;97.00;;;;;;4991186;28;19925;-77
2023/07/07 12:43:56;;;;;;;;;;;26.70;97.20;;;;;;4990882;28;19921;-75
2023/07/07 12:46:27;;;;;;;;;;;26.70;97.90;;;;;;4994477;28;19918;-74
2023/07/07 12:48:53;;;;;;;;;;;26.80;96.90;;;;;;4992659;28;19918;-76
2023/07/07 12:51:19;;;;;;;;;;;26.90;97.40;;;;;;4993910;28;19918;-76
2023/07/07 12:53:47;;;;;;;;;;;26.90;97.00;;;;;;4993866;28;20003;-73
2023/07/07 12:56:17;;;;;;;;;;;26.90;96.90;;;;;;4992687;28;19918;-74
2023/07/07 12:58:44;;;;;;;;;;;26.90;95.70;;;;;;4992686;28;20289;-74
2023/07/07 13:01:11;;;;;;;;;;;26.90;96.30;;;;;;4990613;28;20316;-76
2023/07/07 13:03:55;;;;;;;;;;;27.00;97.40;;;;;;4991981;28;20035;-75
2023/07/07 13:06:30;;;;;;;;;;;27.00;94.80;;;;;;4991172;28;19922;-74
2023/07/07 13:09:14;;;;;;;;;;;26.90;96.30;;;;;;4992894;28;20389;-77
2023/07/07 13:11:40;;;;;;;;;;;27.00;96.20;;;;;;4992158;28;19937;-73
2023/07/07 13:14:07;;;;;;;;;;;27.10;97.20;;;;;;4991362;28;19967;-73
2023/07/07 13:16:32;;;;;;;;;;;27.10;95.60;;;;;;4993837;28;19957;-76
2023/07/07 13:18:58;;;;;;;;;;;27.00;93.40;;;;;;4996136;28;20326;-77
2023/07/07 13:21:29;;;;;;;;;;;27.00;94.30;;;;;;4996266;28;19921;-77
2023/07/07 13:23:55;;;;;;;;;;;27.00;94.60;;;;;;4995195;28;19925;-72
2023/07/07 13:26:22;;;;;;;;;;;27.00;91.90;;;;;;4997090;28;19966;-74
2023/07/07 13:28:48;;;;;;;;;;;27.00;93.10;;;;;;4996055;28;19925;-75
2023/07/07 13:31:14;;;;;;;;;;;27.00;92.40;;;;;;4997226;28;20420;-76
2023/07/07 13:33:40;;;;;;;;;;;27.10;93.90;;;;;;4995838;28;20381;-76
2023/07/07 13:36:08;;;;;;;;;;;27.10;93.80;;;;;;4997265;28;19924;-73
2023/07/07 13:38:34;;;;;;;;;;;27.10;92.20;;;;;;4996843;28;20340;-77
2023/07/07 13:41:01;;;;;;;;;;;27.10;92.10;;;;;;4995617;28;19918;-76
2023/07/07 13:43:28;;;;;;;;;;;27.10;93.10;;;;;;4995509;28;19977;-76
2023/07/07 13:45:55;;;;;;;;;;;27.20;90.50;;;;;;4996253;28;19921;-75
2023/07/07 13:48:22;;;;;;;;;;;27.20;91.80;;;;;;4997827;28;19968;-75
2023/07/07 13:50:48;;;;;;;;;;;27.20;92.00;;;;;;4996059;28;20424;-73
2023/07/07 13:53:13;;;;;;;;;;;27.20;90.70;;;;;;4979359;28;19989;-76
2023/07/07 13:55:40;;;;;;;;;;;27.20;91.80;;;;;;4997295;28;19925;-76
2023/07/07 13:58:10;;;;;;;;;;;27.20;91.30;;;;;;4995574;28;19968;-76
2023/07/07 14:00:37;;;;;;;;;;;27.20;91.40;;;;;;4996564;28;19926;-74
2023/07/07 14:03:04;;;;;;;;;;;27.30;92.50;;;;;;4995306;28;19933;-74
2023/07/07 14:05:32;;;;;;;;;;;27.40;92.60;;;;;;4995809;28;19964;-73
2023/07/07 14:07:57;;;;;;;;;;;27.40;90.60;;;;;;4995615;28;19918;-75
2023/07/07 14:10:26;;;;;;;;;;;27.40;87.00;;;;;;4995153;28;20262;-76
2023/07/07 14:12:52;;;;;;;;;;;27.50;91.30;;;;;;4995645;28;19996;-76
2023/07/07 14:15:18;;;;;;;;;;;27.50;89.70;;;;;;4995366;28;20360;-77
2023/07/07 14:17:44;;;;;;;;;;;27.50;91.00;;;;;;4996253;28;20009;-73
2023/07/07 14:20:13;;;;;;;;;;;27.40;90.20;;;;;;4995069;28;20251;-74
2023/07/07 14:22:38;;;;;;;;;;;27.50;91.10;;;;;;4995067;28;20356;-76
2023/07/07 14:25:05;;;;;;;;;;;27.60;91.50;;;;;;4995397;28;19921;-75
2023/07/07 14:27:31;;;;;;;;;;;27.50;88.50;;;;;;4996736;28;20342;-77
2023/07/07 14:29:57;;;;;;;;;;;27.40;88.00;;;;;;4994831;28;20008;-75
2023/07/07 14:32:29;;;;;;;;;;;27.40;88.60;;;;;;4994796;28;19921;-72
2023/07/07 14:34:58;;;;;;;;;;;27.40;86.90;;;;;;4994854;28;19989;-76
2023/07/07 14:37:35;;;;;;;;;;;27.40;85.80;;;;;;4978492;28;20362;-76
2023/07/07 14:40:21;;;;;;;;;;;27.40;82.10;;;;;;4996286;28;19918;-75
2023/07/07 14:42:50;;;;;;;;;;;27.40;85.10;;;;;;4994035;28;19922;-75
2023/07/07 14:45:27;;;;;;;;;;;27.50;86.00;;;;;;4994659;28;19918;-72
2023/07/07 14:47:53;;;;;;;;;;;27.50;85.70;;;;;;4996088;28;19924;-74
2023/07/07 14:50:19;;;;;;;;;;;27.50;84.00;;;;;;4996505;28;19918;-76
2023/07/07 14:52:49;;;;;;;;;;;27.50;84.60;;;;;;4995628;28;19960;-74
2023/07/07 14:55:18;;;;;;;;;;;27.50;85.30;;;;;;4995748;28;19944;-74
2023/07/07 14:57:45;;;;;;;;;;;27.60;84.10;;;;;;4994937;28;19917;-77
2023/07/07 15:00:30;;;;;;;;;;;27.50;81.50;;;;;;4995491;28;19924;-74
2023/07/07 15:02:55;;;;;;;;;;;27.50;80.30;;;;;;4995712;28;20060;-74
2023/07/07 15:05:26;;;;;;;;;;;27.50;83.30;;;;;;4995648;28;20346;-73
2023/07/07 15:07:52;;;;;;;;;;;27.60;84.10;;;;;;4995690;28;19924;-73
2023/07/07 15:10:18;;;;;;;;;;;27.70;84.20;;;;;;4995239;28;20005;-77
2023/07/07 15:12:46;;;;;;;;;;;27.70;85.80;;;;;;4995537;28;19917;-76
2023/07/07 15:15:12;;;;;;;;;;;27.80;84.10;;;;;;4994894;28;20303;-76
2023/07/07 15:17:38;;;;;;;;;;;27.80;80.90;;;;;;4995109;28;19918;-76
2023/07/07 15:20:11;;;;;;;;;;;27.70;81.70;;;;;;4995330;28;19918;-75
2023/07/07 15:22:36;;;;;;;;;;;27.80;82.20;;;;;;4993876;28;19922;-75
2023/07/07 15:25:02;;;;;;;;;;;27.80;81.00;;;;;;4995310;28;20309;-75
2023/07/07 15:27:28;;;;;;;;;;;27.80;82.20;;;;;;4994473;28;19928;-74
2023/07/07 15:29:54;;;;;;;;;;;27.80;80.40;;;;;;4995481;28;19922;-74
2023/07/07 15:32:20;;;;;;;;;;;27.80;82.40;;;;;;4996086;28;19968;-76
2023/07/07 15:34:45;;;;;;;;;;;27.80;80.70;;;;;;4978488;28;19925;-74
2023/07/07 15:37:11;;;;;;;;;;;27.80;79.60;;;;;;4995296;28;19996;-75
2023/07/07 15:39:37;;;;;;;;;;;27.80;82.80;;;;;;4993472;28;20282;-73
2023/07/07 15:42:09;;;;;;;;;;;27.80;82.00;;;;;;4994989;28;19917;-73
2023/07/07 15:44:34;;;;;;;;;;;27.80;81.40;;;;;;4994967;28;19921;-74
2023/07/07 15:47:00;;;;;;;;;;;27.80;82.00;;;;;;4993851;28;20401;-73
2023/07/07 15:49:26;;;;;;;;;;;27.80;79.90;;;;;;4977365;28;19918;-72
2023/07/07 15:51:53;;;;;;;;;;;27.90;81.30;;;;;;4993829;28;19918;-74
2023/07/07 15:54:19;;;;;;;;;;;27.90;83.70;;;;;;4977130;28;19975;-74
2023/07/07 15:56:45;;;;;;;;;;;27.80;81.90;;;;;;4994875;28;20015;-75
2023/07/07 15:59:17;;;;;;;;;;;27.80;81.50;;;;;;4994918;28;19918;-77
2023/07/07 16:01:44;;;;;;;;;;;27.70;81.20;;;;;;4993365;28;20365;-74
2023/07/07 16:04:09;;;;;;;;;;;27.70;80.90;;;;;;4994175;28;20016;-73
2023/07/07 16:06:35;;;;;;;;;;;27.70;81.40;;;;;;4994379;28;19964;-76
2023/07/07 16:09:00;;;;;;;;;;;27.70;82.40;;;;;;4994385;28;19969;-77
2023/07/07 16:11:26;;;;;;;;;;;27.70;81.00;;;;;;4992959;28;20060;-75
2023/07/07 16:13:52;;;;;;;;;;;27.70;82.60;;;;;;4993251;28;19918;-75
2023/07/07 16:16:22;;;;;;;;;;;27.70;82.00;;;;;;4990579;28;19949;-74
2023/07/07 16:18:48;;;;;;;;;;;27.80;83.80;;;;;;4993643;28;19918;-74
2023/07/07 16:21:15;;;;;;;;;;;27.70;83.00;;;;;;4990693;28;20344;-74
2023/07/07 16:23:41;;;;;;;;;;;27.70;81.60;;;;;;4976039;28;19944;-77
2023/07/07 16:26:10;;;;;;;;;;;27.70;82.60;;;;;;4991841;28;20361;-74
2023/07/07 16:28:36;;;;;;;;;;;27.70;81.60;;;;;;4991736;28;19972;-74
2023/07/07 16:31:01;;;;;;;;;;;27.70;82.80;;;;;;4992553;28;19922;-76
2023/07/07 16:33:27;;;;;;;;;;;27.70;84.50;;;;;;4975892;28;20359;-74
2023/07/07 16:35:52;;;;;;;;;;;27.60;83.00;;;;;;4992399;28;19944;-76
2023/07/07 16:38:18;;;;;;;;;;;27.50;82.20;;;;;;4987965;28;20004;-75
2023/07/07 16:40:43;;;;;;;;;;;27.50;82.70;;;;;;4993000;28;19986;-75
2023/07/07 16:43:09;;;;;;;;;;;27.40;83.30;;;;;;4990107;28;19973;-76
2023/07/07 16:45:35;;;;;;;;;;;27.40;83.30;;;;;;4990652;28;19918;-74
2023/07/07 16:48:34;;;;;;;;;;;;;;;;;;;;;
2023/07/07 16:51:01;;;;;;;;;;;27.40;84.40;;;;;;4993722;28;19917;-74
2023/07/07 16:53:26;;;;;;;;;;;27.40;84.40;;;;;;4997342;28;19918;-74
2023/07/07 16:55:52;;;;;;;;;;;27.40;84.40;;;;;;4997103;28;19964;-76
2023/07/07 16:58:17;;;;;;;;;;;27.30;84.20;;;;;;4994956;28;20401;-77
2023/07/07 17:00:43;;;;;;;;;;;27.20;85.00;;;;;;4995343;28;19917;-75
2023/07/07 17:03:11;;;;;;;;;;;27.20;83.70;;;;;;4997074;28;19988;-72
2023/07/07 17:05:36;;;;;;;;;;;27.20;83.70;;;;;;4995661;28;19917;-72
2023/07/07 17:08:02;;;;;;;;;;;27.20;83.40;;;;;;4996930;28;19918;-74
2023/07/07 17:10:36;;;;;;;;;;;27.10;84.80;;;;;;4997166;28;19988;-74
2023/07/07 17:13:02;;;;;;;;;;;27.10;84.90;;;;;;4979397;28;19918;-76
2023/07/07 17:15:28;;;;;;;;;;;27.10;85.10;;;;;;4995602;28;19918;-75
2023/07/07 17:17:54;;;;;;;;;;;27.00;83.10;;;;;;4979583;28;19928;-75
2023/07/07 17:20:21;;;;;;;;;;;26.90;84.50;;;;;;4996620;28;19926;-72
2023/07/07 17:22:47;;;;;;;;;;;26.90;84.50;;;;;;4996612;28;19921;-74
2023/07/07 17:25:13;;;;;;;;;;;26.90;86.00;;;;;;4994912;28;19971;-72